Airfield :







YOU CAN JOIN US ON...

 
LOGIN :

Register | Disclaimer

   EN    FR    IT 

 









Legend :    VFR   Marginal VFR   IFR   Intensive IFR   Very Intensive IFR
Visi :
Ceiling :
>= 8 km
>= 3000ft
5 to 8 km
1000 to 3000 ft
1500m to 5 km
500 to 1000 ft
800 to 1500m
200 to 500 ft
< 800m
< 200 ft
Symbols :   Thunderstorms  Fog  Heavy snow  Heavy precipitations  Wind > 20 kt






- Airport Elevation : 522 ft
- IATA code : YBG


CYBG - CFB Bagotville

CURRENT METAR :
  • 282300Z 28019G25KT 15SM BKN030TCU BKN090 15/12 A2947 RMK TCU6AC1 DENSITY ALT 1372FT TCU ALQDS MOV NE SLP982

EXPIRED METARs :
  • 282200Z 28025KT 15SM -SHRA BKN035TCU BKN090 16/13 A2943 RMK TCU6AC1 DENSITY ALT 1561FT TCU ALQDS MOV NE VIS LWR SW SLP968
  • 282121Z 23022G31KT 20SM -SHRA SCT050TCU BKN090 20/12 A2939 RMK TCU4AC3 DENSITY ALT 2040FT TCU ALQDS MOV NE SLP955
  • 282100Z 22016G22KT 25SM VCSH SCT050TCU BKN090 21/11 A2939 RMK TCU4AC3 DENSITY ALT 2163FT TCU ALQDS MOV NE SLP952
  • 282000Z CCA 20016G27KT 25SM VCSH SCT060TCU BKN090 21/12 A2938 RMK TCU4AC2 DENSITY ALT 2170FT TCU ALQDS MOV NE SLP951
  • 281900Z 10016G25KT 25SM VCSH SCT050TCU BKN080 21/12 A2938 RMK TCU4AC3 DENSITY ALT 2167FT TCU ALQDS MOV NE SLP951

TAF TAF CYBG
Valid from the 29 at 00:00 until the 30 at 00:00 UTC


282340Z 2900/2924 27020G30KT P6SM FEW015 BKN030
TEMPO 2900/2902 4SM -SHRA BR BKN015 OVC030
FM290200 29022G32KT 4SM -RA BR BKN015 OVC030
TEMPO 2902/2906 P6SM NSW FEW015 BKN030
FM290600 30015G28KT P6SM -RA SCT020 BKN030
FM291000 30012G22KT P6SM BKN025
FM291400 30012G22KT P6SM BKN040
FM292000 30012G22KT P6SM FEW050 RMK NXT FCST BY 290300Z
CZUL FIR / North America



MET'MAP, your aeronautical weather chart ! - Copyright ORBIFLY December 2007 - Disclaimer

ORBIFLY MET'MAP TEAM :

Programming & Development : Alexandra Zaïnal
Original concept : Baudouin d'Aumeries
Technical & hardware support : Manuel Goepfert
Assistance : Marc-Olivier Méhu




SOURCES & CREDITS :

   NOAA